createdAt,value
2023-04-01T00:01:05.074Z,10.18
2023-04-01T00:03:32.018Z,10.13
2023-04-01T00:05:59.743Z,10.08
2023-04-01T00:08:27.584Z,10.02
2023-04-01T00:10:54.570Z,9.97
2023-04-01T00:13:21.800Z,9.92
2023-04-01T00:15:48.386Z,9.88
2023-04-01T00:18:15.045Z,9.86
2023-04-01T00:20:46.898Z,9.82
2023-04-01T00:23:13.608Z,9.80
2023-04-01T00:25:40.173Z,9.78
2023-04-01T00:28:06.739Z,9.76
2023-04-01T00:30:33.333Z,9.73
2023-04-01T00:32:59.905Z,9.71
2023-04-01T00:35:26.498Z,9.70
2023-04-01T00:37:52.972Z,9.68
2023-04-01T00:40:34.608Z,9.67
2023-04-01T00:43:01.507Z,9.64
2023-04-01T00:45:30.436Z,9.62
2023-04-01T00:47:59.834Z,9.58
2023-04-01T00:50:27.951Z,9.55
2023-04-01T00:52:54.605Z,9.53
2023-04-01T00:55:24.022Z,9.52
2023-04-01T00:57:54.182Z,9.53
2023-04-01T01:00:20.948Z,9.52
2023-04-01T01:02:48.917Z,9.54
2023-04-01T01:05:17.050Z,9.56
2023-04-01T01:07:43.457Z,9.58
2023-04-01T01:10:30.841Z,9.59
2023-04-01T01:13:04.870Z,9.59
2023-04-01T01:15:37.310Z,9.61
2023-04-01T01:18:25.312Z,9.62
2023-04-01T01:20:57.937Z,9.62
2023-04-01T01:23:47.151Z,9.62
2023-04-01T01:26:22.805Z,9.62
2023-04-01T01:28:49.244Z,9.62
2023-04-01T01:31:21.350Z,9.63
2023-04-01T01:34:12.477Z,9.62
2023-04-01T01:36:40.013Z,9.61
2023-04-01T01:39:08.789Z,9.60
2023-04-01T01:41:37.756Z,9.59
2023-04-01T01:44:07.891Z,9.59
2023-04-01T01:46:34.523Z,9.61
2023-04-01T01:49:02.934Z,9.60
2023-04-01T01:51:29.426Z,9.62
2023-04-01T01:53:56.059Z,9.61
2023-04-01T01:56:27.402Z,9.61
2023-04-01T01:59:04.545Z,9.63
2023-04-01T02:01:34.666Z,9.63
2023-04-01T02:04:01.348Z,9.63
2023-04-01T02:06:32.352Z,9.59
2023-04-01T02:09:02.384Z,9.57
2023-04-01T02:11:39.145Z,9.56
2023-04-01T02:14:26.364Z,9.55
2023-04-01T02:16:58.967Z,9.55
2023-04-01T02:19:32.345Z,9.53
2023-04-01T02:22:02.480Z,9.53
2023-04-01T02:24:32.057Z,9.55
2023-04-01T02:26:58.670Z,9.55
2023-04-01T02:29:25.963Z,9.56
2023-04-01T02:31:54.057Z,9.56
2023-04-01T02:34:22.580Z,9.57
2023-04-01T02:36:51.021Z,9.57
2023-04-01T02:39:17.915Z,9.56
2023-04-01T02:41:46.510Z,9.56
2023-04-01T02:44:15.430Z,9.55
2023-04-01T02:46:42.511Z,9.55
2023-04-01T02:49:09.218Z,9.56
2023-04-01T02:51:35.818Z,9.56
2023-04-01T02:54:02.725Z,9.57
2023-04-01T02:56:29.446Z,9.58
2023-04-01T02:58:56.148Z,9.59
2023-04-01T03:01:23.226Z,9.58
2023-04-01T03:03:50.096Z,9.58
2023-04-01T03:06:17.538Z,9.56
2023-04-01T03:08:44.909Z,9.54
2023-04-01T03:11:12.673Z,9.52
2023-04-01T03:13:39.183Z,9.50
2023-04-01T03:16:05.770Z,9.48
2023-04-01T03:18:32.269Z,9.47
2023-04-01T03:20:58.758Z,9.46
2023-04-01T03:23:25.325Z,9.47
2023-04-01T03:25:51.918Z,9.46
2023-04-01T03:28:18.448Z,9.46
2023-04-01T03:30:44.951Z,9.46
2023-04-01T03:33:11.515Z,9.43
2023-04-01T03:35:38.102Z,9.42
2023-04-01T03:38:04.593Z,9.41
2023-04-01T03:40:31.026Z,9.41
2023-04-01T03:42:57.596Z,9.40
2023-04-01T03:45:24.107Z,9.39
2023-04-01T03:47:50.629Z,9.39
2023-04-01T03:50:17.257Z,9.37
2023-04-01T03:52:43.756Z,9.36
2023-04-01T03:55:10.268Z,9.36
2023-04-01T03:57:36.810Z,9.35
2023-04-01T04:00:03.783Z,9.35
2023-04-01T04:02:30.301Z,9.35
2023-04-01T04:04:56.831Z,9.34
2023-04-01T04:07:23.318Z,9.32
2023-04-01T04:09:49.789Z,9.30
2023-04-01T04:12:16.288Z,9.29
2023-04-01T04:14:42.773Z,9.28
2023-04-01T04:17:11.620Z,9.26
2023-04-01T04:19:38.085Z,9.25
2023-04-01T04:22:04.572Z,9.23
2023-04-01T04:24:31.023Z,9.21
2023-04-01T04:26:57.543Z,9.19
2023-04-01T04:29:24.064Z,9.15
2023-04-01T04:31:50.559Z,9.12
2023-04-01T04:34:17.100Z,9.10
2023-04-01T04:36:44.090Z,9.08
2023-04-01T04:39:10.685Z,9.08
2023-04-01T04:41:38.696Z,9.09
2023-04-01T04:44:05.250Z,9.10
2023-04-01T04:46:31.926Z,9.09
2023-04-01T04:48:58.436Z,9.10
2023-04-01T04:51:25.326Z,9.11
2023-04-01T04:53:53.003Z,9.15
2023-04-01T04:56:23.741Z,9.19
2023-04-01T04:58:50.920Z,9.22
2023-04-01T05:01:18.463Z,9.27
2023-04-01T05:03:45.660Z,9.29
2023-04-01T05:06:14.415Z,9.32
2023-04-01T05:08:41.730Z,9.35
2023-04-01T05:11:13.924Z,9.39
2023-04-01T05:13:41.381Z,9.44
2023-04-01T05:16:15.183Z,9.48
2023-04-01T05:18:41.904Z,9.54
2023-04-01T05:21:09.957Z,9.56
2023-04-01T05:23:36.537Z,9.59
2023-04-01T05:26:07.745Z,9.63
2023-04-01T05:28:34.807Z,9.66
2023-04-01T05:31:03.030Z,9.70
2023-04-01T05:33:31.172Z,9.75
2023-04-01T05:36:06.301Z,9.78
2023-04-01T05:38:32.853Z,9.81
2023-04-01T05:41:01.172Z,9.86
2023-04-01T05:43:27.802Z,9.91
2023-04-01T05:45:54.576Z,9.97
2023-04-01T05:48:21.244Z,10.04
2023-04-01T05:50:47.900Z,10.08
2023-04-01T05:53:14.494Z,10.12
2023-04-01T05:55:41.384Z,10.19
2023-04-01T05:58:07.977Z,10.21
2023-04-01T06:00:34.440Z,10.26
2023-04-01T06:03:01.279Z,10.35
2023-04-01T06:05:30.436Z,10.40
2023-04-01T06:08:06.285Z,10.47
2023-04-01T06:10:54.231Z,10.53
2023-04-01T06:13:26.425Z,10.57
2023-04-01T06:16:14.378Z,10.62
2023-04-01T06:19:09.612Z,10.67
2023-04-01T06:22:14.757Z,10.71
2023-04-01T06:24:50.230Z,10.76
2023-04-01T06:27:47.361Z,10.79
2023-04-01T06:30:35.935Z,10.85
2023-04-01T06:33:17.590Z,10.91
2023-04-01T06:36:02.802Z,11.00
2023-04-01T06:38:48.418Z,11.06
2023-04-01T06:41:45.727Z,11.14
2023-04-01T06:44:17.934Z,11.21
2023-04-01T06:47:04.630Z,11.29
2023-04-01T06:49:58.818Z,11.35
2023-04-01T06:52:49.560Z,11.43
2023-04-01T06:55:31.643Z,11.53
2023-04-01T06:58:01.318Z,11.62
2023-04-01T07:00:36.071Z,11.70
2023-04-01T07:03:34.652Z,11.81
2023-04-01T07:06:06.768Z,11.90
2023-04-01T07:08:37.851Z,11.91
2023-04-01T07:11:07.072Z,11.94
2023-04-01T07:13:55.224Z,12.00
2023-04-01T07:16:35.537Z,12.05
2023-04-01T07:19:21.874Z,12.10
2023-04-01T07:21:53.756Z,12.18
2023-04-01T07:24:37.944Z,12.25
2023-04-01T07:27:10.041Z,12.30
2023-04-01T07:29:36.695Z,12.39
2023-04-01T07:32:36.582Z,12.49
2023-04-01T07:35:21.245Z,12.63
2023-04-01T07:38:09.360Z,12.74
2023-04-01T07:41:02.658Z,12.83
2023-04-01T07:43:48.027Z,12.91
2023-04-01T07:46:29.713Z,12.98
2023-04-01T07:49:05.889Z,13.08
2023-04-01T07:51:35.102Z,13.17
2023-04-01T07:54:17.278Z,13.23
2023-04-01T07:56:57.121Z,13.29
2023-04-01T07:59:30.310Z,13.37
2023-04-01T08:02:13.729Z,13.46
2023-04-01T08:04:59.056Z,13.54
2023-04-01T08:08:05.255Z,13.64
2023-04-01T08:10:38.634Z,13.77
2023-04-01T08:13:29.982Z,13.86
2023-04-01T08:16:14.368Z,13.85
2023-04-01T08:19:08.792Z,13.89
2023-04-01T08:21:52.389Z,13.97
2023-04-01T08:24:47.733Z,14.02
2023-04-01T08:27:29.003Z,14.05
2023-04-01T08:30:19.713Z,14.12
2023-04-01T08:32:56.796Z,14.20
2023-04-01T08:35:39.280Z,14.26
2023-04-01T08:38:13.979Z,14.29
2023-04-01T08:40:52.377Z,14.30
2023-04-01T08:44:00.468Z,14.28
2023-04-01T08:46:42.180Z,14.23
2023-04-01T08:49:31.808Z,14.24
2023-04-01T08:52:27.531Z,14.25
2023-04-01T08:55:03.014Z,14.24
2023-04-01T08:57:57.456Z,14.30
2023-04-01T09:00:38.303Z,14.37
2023-04-01T09:03:36.550Z,14.42
2023-04-01T09:06:12.023Z,14.46
2023-04-01T09:09:03.555Z,14.46
2023-04-01T09:11:45.350Z,14.52
2023-04-01T09:14:14.881Z,14.60
2023-04-01T09:17:09.420Z,14.71
2023-04-01T09:20:11.847Z,14.78
2023-04-01T09:23:25.738Z,14.71
2023-04-01T09:26:04.011Z,14.62
2023-04-01T09:28:42.519Z,14.63
2023-04-01T09:31:37.079Z,14.71
2023-04-01T09:34:09.715Z,14.84
2023-04-01T09:37:00.808Z,14.92
2023-04-01T09:39:44.077Z,15.01
2023-04-01T09:42:13.801Z,15.11
2023-04-01T09:45:06.469Z,15.13
2023-04-01T09:47:40.229Z,15.09
2023-04-01T09:50:32.976Z,15.07
2023-04-01T09:53:18.962Z,14.97
2023-04-01T09:56:35.880Z,14.77
2023-04-01T09:59:16.204Z,14.51
2023-04-01T10:02:20.344Z,14.37
2023-04-01T10:05:27.321Z,14.29
2023-04-01T10:08:08.901Z,14.14
2023-04-01T10:11:03.052Z,13.98
2023-04-01T10:14:07.122Z,13.88
2023-04-01T10:17:27.639Z,14.11
2023-04-01T10:20:10.057Z,14.24
2023-04-01T10:23:14.082Z,14.25
2023-04-01T10:25:43.530Z,14.22
2023-04-01T10:28:28.543Z,14.46
2023-04-01T10:31:21.924Z,14.60
2023-04-01T10:34:16.061Z,14.61
2023-04-01T10:36:50.610Z,14.60
2023-04-01T10:39:54.229Z,14.50
2023-04-01T10:42:41.969Z,14.30
2023-04-01T10:45:23.722Z,14.16
2023-04-01T10:48:10.321Z,14.06
2023-04-01T10:50:55.170Z,13.96
2023-04-01T10:53:33.698Z,13.91
2023-04-01T10:56:12.429Z,13.86
2023-04-01T10:59:20.792Z,13.81
2023-04-01T11:02:11.432Z,13.83
2023-04-01T11:05:15.087Z,13.94
2023-04-01T11:08:06.165Z,14.63
2023-04-01T11:11:01.327Z,14.87
2023-04-01T11:13:58.631Z,15.09
2023-04-01T11:16:25.151Z,15.25
2023-04-01T11:19:09.792Z,15.09
2023-04-01T11:21:42.330Z,14.91
2023-04-01T11:24:45.788Z,14.86
2023-04-01T11:27:39.788Z,14.80
2023-04-01T11:30:34.353Z,14.82
2023-04-01T11:33:07.794Z,14.97
2023-04-01T11:35:49.522Z,14.99
2023-04-01T11:38:25.092Z,15.05
2023-04-01T11:41:23.656Z,15.02
2023-04-01T11:44:10.356Z,14.97
2023-04-01T11:46:48.334Z,14.87
2023-04-01T11:49:17.536Z,14.78
2023-04-01T11:51:47.042Z,14.70
2023-04-01T11:54:52.781Z,14.56
2023-04-01T11:57:43.989Z,14.38
2023-04-01T12:00:32.316Z,14.19
2023-04-01T12:03:01.937Z,14.02
2023-04-01T12:05:43.596Z,13.85
2023-04-01T12:08:16.219Z,13.71
2023-04-01T12:11:00.459Z,13.61
2023-04-01T12:14:17.488Z,13.51
2023-04-01T12:17:08.959Z,13.44
2023-04-01T12:19:56.783Z,13.40
2023-04-01T12:22:41.145Z,13.40
2023-04-01T12:25:26.209Z,13.48
2023-04-01T12:28:04.105Z,13.58
2023-04-01T12:30:43.514Z,13.79
2023-04-01T12:33:15.895Z,14.04
2023-04-01T12:35:55.985Z,14.26
2023-04-01T12:38:44.342Z,14.42
2023-04-01T12:41:39.674Z,14.54
2023-04-01T12:44:18.754Z,14.73
2023-04-01T12:47:33.743Z,14.94
2023-04-01T12:50:34.138Z,15.11
2023-04-01T12:53:15.834Z,15.27
2023-04-01T12:55:43.336Z,15.39
2023-04-01T12:58:25.168Z,15.48
2023-04-01T13:01:00.523Z,15.65
2023-04-01T13:03:45.642Z,15.78
2023-04-01T13:06:14.878Z,15.92
2023-04-01T13:08:59.661Z,15.99
2023-04-01T13:11:48.147Z,16.12
2023-04-01T13:14:31.701Z,16.29
2023-04-01T13:17:04.698Z,16.41
2023-04-01T13:20:04.183Z,16.49
2023-04-01T13:22:59.700Z,16.46
2023-04-01T13:26:14.871Z,16.47
2023-04-01T13:29:05.850Z,16.51
2023-04-01T13:31:47.539Z,16.51
2023-04-01T13:34:32.804Z,16.53
2023-04-01T13:37:36.989Z,16.59
2023-04-01T13:40:29.294Z,16.57
2023-04-01T13:43:00.982Z,16.57
2023-04-01T13:45:47.812Z,16.66
2023-04-01T13:48:33.091Z,16.75
2023-04-01T13:51:36.961Z,16.82
2023-04-01T13:54:21.919Z,16.94
2023-04-01T13:57:18.751Z,16.91
2023-04-01T13:59:45.206Z,16.67
2023-04-01T14:02:45.878Z,16.60
2023-04-01T14:05:41.879Z,16.52
2023-04-01T14:08:09.443Z,16.54
2023-04-01T14:10:41.566Z,16.69
2023-04-01T14:13:24.051Z,17.12
2023-04-01T14:15:55.908Z,17.93
2023-04-01T14:18:54.010Z,18.83
2023-04-01T14:21:23.475Z,19.69
2023-04-01T14:24:09.256Z,19.93
2023-04-01T14:27:12.252Z,20.57
2023-04-01T14:30:03.858Z,20.61
2023-04-01T14:32:48.719Z,19.65
2023-04-01T14:35:39.650Z,18.68
2023-04-01T14:38:16.282Z,17.81
2023-04-01T14:41:03.389Z,17.30
2023-04-01T14:43:48.268Z,16.90
2023-04-01T14:46:46.233Z,16.60
2023-04-01T14:49:54.071Z,16.24
2023-04-01T14:52:32.276Z,15.94
2023-04-01T14:54:59.472Z,15.84
2023-04-01T14:57:29.901Z,15.76
2023-04-01T15:00:15.205Z,15.62
2023-04-01T15:02:50.779Z,15.53
2023-04-01T15:05:28.329Z,15.54
2023-04-01T15:08:02.216Z,15.60
2023-04-01T15:10:48.910Z,15.76
2023-04-01T15:13:30.442Z,15.94
2023-04-01T15:16:24.678Z,16.14
2023-04-01T15:19:15.676Z,16.18
2023-04-01T15:22:19.497Z,16.21
2023-04-01T15:25:21.562Z,16.14
2023-04-01T15:27:56.779Z,16.01
2023-04-01T15:30:23.481Z,15.89
2023-04-01T15:33:19.438Z,15.76
2023-04-01T15:35:57.882Z,15.57
2023-04-01T15:38:43.876Z,15.43
2023-04-01T15:41:21.416Z,15.34
2023-04-01T15:43:50.089Z,15.20
2023-04-01T15:46:16.638Z,15.11
2023-04-01T15:48:43.051Z,15.05
2023-04-01T15:51:50.206Z,15.02
2023-04-01T15:54:35.049Z,15.05
2023-04-01T15:57:43.117Z,15.16
2023-04-01T16:00:31.392Z,15.30
2023-04-01T16:03:24.462Z,15.39
2023-04-01T16:06:09.504Z,15.37
2023-04-01T16:09:06.690Z,15.33
2023-04-01T16:11:45.224Z,15.26
2023-04-01T16:14:44.058Z,15.17
2023-04-01T16:17:22.418Z,15.07
2023-04-01T16:20:15.844Z,15.01
2023-04-01T16:23:05.442Z,14.97
2023-04-01T16:25:45.900Z,14.96
2023-04-01T16:28:36.559Z,14.93
2023-04-01T16:31:10.776Z,14.91
2023-04-01T16:33:59.690Z,14.87
2023-04-01T16:36:36.877Z,14.84
2023-04-01T16:39:25.227Z,14.79
2023-04-01T16:42:13.064Z,14.73
2023-04-01T16:45:08.737Z,14.67
2023-04-01T16:48:12.487Z,14.61
2023-04-01T16:50:53.305Z,14.56
2023-04-01T16:53:38.444Z,14.52
2023-04-01T16:56:22.665Z,14.47
2023-04-01T16:59:07.226Z,14.43
2023-04-01T17:01:53.732Z,14.37
2023-04-01T17:04:20.286Z,14.31
2023-04-01T17:06:50.641Z,14.25
2023-04-01T17:09:33.278Z,14.23
2023-04-01T17:12:26.929Z,14.17
2023-04-01T17:15:18.176Z,14.10
2023-04-01T17:17:59.437Z,14.04
2023-04-01T17:20:49.125Z,13.99
2023-04-01T17:23:21.528Z,13.95
2023-04-01T17:26:09.135Z,13.93
2023-04-01T17:28:50.390Z,13.88
2023-04-01T17:31:27.454Z,13.82
2023-04-01T17:34:31.542Z,13.76
2023-04-01T17:37:21.020Z,13.70
2023-04-01T17:39:50.293Z,13.65
2023-04-01T17:42:22.321Z,13.60
2023-04-01T17:45:11.635Z,13.55
2023-04-01T17:48:09.882Z,13.49
2023-04-01T17:50:54.890Z,13.44
2023-04-01T17:53:42.433Z,13.39
2023-04-01T17:56:24.222Z,13.35
2023-04-01T17:59:01.630Z,13.31
2023-04-01T18:01:47.035Z,13.26
2023-04-01T18:04:35.337Z,13.22
2023-04-01T18:07:21.405Z,13.18
2023-04-01T18:09:57.368Z,13.08
2023-04-01T18:12:34.853Z,13.01
2023-04-01T18:15:20.085Z,12.93
2023-04-01T18:18:39.379Z,12.88
2023-04-01T18:21:14.234Z,12.82
2023-04-01T18:24:02.218Z,12.78
2023-04-01T18:26:32.976Z,12.73
2023-04-01T18:29:14.450Z,12.69
2023-04-01T18:31:49.760Z,12.67
2023-04-01T18:34:44.417Z,12.63
2023-04-01T18:37:29.476Z,12.60
2023-04-01T18:40:28.490Z,12.57
2023-04-01T18:43:17.280Z,12.52
2023-04-01T18:45:59.545Z,12.47
2023-04-01T18:48:50.817Z,12.43
2023-04-01T18:52:12.940Z,12.39
2023-04-01T18:55:09.040Z,12.37
2023-04-01T18:57:50.046Z,12.35
2023-04-01T19:00:21.891Z,12.31
2023-04-01T19:03:08.111Z,12.29
2023-04-01T19:05:46.707Z,12.25
2023-04-01T19:08:41.171Z,12.22
2023-04-01T19:11:11.647Z,12.18
2023-04-01T19:13:50.294Z,12.14
2023-04-01T19:16:44.784Z,12.11
2023-04-01T19:19:40.468Z,12.08
2023-04-01T19:22:31.077Z,12.05
2023-04-01T19:25:00.227Z,12.02
2023-04-01T19:27:35.745Z,12.00
2023-04-01T19:30:39.857Z,12.00
2023-04-01T19:33:18.233Z,12.00
2023-04-01T19:36:16.512Z,11.99
2023-04-01T19:38:57.293Z,11.99
2023-04-01T19:41:33.468Z,11.98
2023-04-01T19:44:13.503Z,11.99
2023-04-01T19:46:50.405Z,12.00
2023-04-01T19:49:26.018Z,12.00
2023-04-01T19:52:05.147Z,11.97
2023-04-01T19:54:43.278Z,11.93
2023-04-01T19:57:21.866Z,11.90
2023-04-01T20:00:15.036Z,11.84
2023-04-01T20:02:50.834Z,11.75
2023-04-01T20:05:25.617Z,11.68
2023-04-01T20:07:56.752Z,11.63
2023-04-01T20:10:44.547Z,11.60
2023-04-01T20:13:40.325Z,11.57
2023-04-01T20:16:10.925Z,11.53
2023-04-01T20:19:01.221Z,11.52
2023-04-01T20:21:44.210Z,11.52
2023-04-01T20:24:46.532Z,11.51
2023-04-01T20:27:26.748Z,11.50
2023-04-01T20:30:08.911Z,11.47
2023-04-01T20:32:50.840Z,11.44
2023-04-01T20:35:27.597Z,11.43
2023-04-01T20:38:26.553Z,11.39
2023-04-01T20:41:28.030Z,11.35
2023-04-01T20:44:12.760Z,11.32
2023-04-01T20:47:00.976Z,11.28
2023-04-01T20:50:04.753Z,11.22
2023-04-01T20:52:56.980Z,11.15
2023-04-01T20:55:48.560Z,11.08
2023-04-01T20:59:19.650Z,11.01
2023-04-01T21:02:00.573Z,10.90
2023-04-01T21:05:04.180Z,10.81
2023-04-01T21:07:47.348Z,10.71
2023-04-01T21:10:48.304Z,10.65
2023-04-01T21:13:21.011Z,10.54
2023-04-01T21:16:35.019Z,10.48
2023-04-01T21:19:10.669Z,10.42
2023-04-01T21:21:48.335Z,10.41
2023-04-01T21:24:40.028Z,10.39
2023-04-01T21:27:51.072Z,10.38
2023-04-01T21:30:49.701Z,10.37
2023-04-01T21:33:40.060Z,10.36
2023-04-01T21:36:36.945Z,10.33
2023-04-01T21:39:32.315Z,10.30
2023-04-01T21:42:04.831Z,10.27
2023-04-01T21:44:49.828Z,10.20
2023-04-01T21:47:45.679Z,10.10
2023-04-01T21:50:24.245Z,10.06
2023-04-01T21:53:12.356Z,10.03
2023-04-01T21:56:06.309Z,10.01
2023-04-01T21:59:10.253Z,9.98
2023-04-01T22:02:07.788Z,9.96
2023-04-01T22:04:37.037Z,9.91
2023-04-01T22:07:18.297Z,9.83
2023-04-01T22:10:03.769Z,9.78
2023-04-01T22:12:37.499Z,9.76
2023-04-01T22:15:18.598Z,9.78
2023-04-01T22:18:10.885Z,9.82
2023-04-01T22:21:20.968Z,9.83
2023-04-01T22:23:59.599Z,9.87
2023-04-01T22:26:39.400Z,9.90
2023-04-01T22:29:14.837Z,9.94
2023-04-01T22:31:51.716Z,9.97
2023-04-01T22:34:28.924Z,9.99
2023-04-01T22:37:07.411Z,10.03
2023-04-01T22:39:44.692Z,10.07
2023-04-01T22:42:35.459Z,10.11
2023-04-01T22:45:07.832Z,10.15
2023-04-01T22:47:58.955Z,10.18
2023-04-01T22:50:42.568Z,10.20
2023-04-01T22:53:26.564Z,10.22
2023-04-01T22:55:55.830Z,10.23
2023-04-01T22:58:48.457Z,10.24
2023-04-01T23:01:25.077Z,10.25
2023-04-01T23:03:53.275Z,10.26
2023-04-01T23:06:28.739Z,10.28
2023-04-01T23:09:01.320Z,10.28
2023-04-01T23:11:42.939Z,10.28
2023-04-01T23:14:21.423Z,10.26
2023-04-01T23:17:29.153Z,10.25
2023-04-01T23:20:06.996Z,10.26
2023-04-01T23:22:40.252Z,10.27
2023-04-01T23:25:21.770Z,10.26
2023-04-01T23:27:57.343Z,10.24
2023-04-01T23:30:39.098Z,10.23
2023-04-01T23:33:11.425Z,10.20
2023-04-01T23:35:57.622Z,10.16
2023-04-01T23:38:26.676Z,10.14
2023-04-01T23:40:55.937Z,10.13
2023-04-01T23:43:27.734Z,10.13
2023-04-01T23:45:56.877Z,10.10
2023-04-01T23:48:31.606Z,10.09
2023-04-01T23:50:59.364Z,10.05
2023-04-01T23:53:30.477Z,10.01
2023-04-01T23:55:57.196Z,9.97
2023-04-01T23:58:39.391Z,9.93
